Goxhill, United Kingdom
Current Conditions -  °F | °C
As of 2:20 PM on Saturday 25 Oct 2014 (Local Time) from EGNJ Reporting Station
Broken Clouds Broken Clouds  
Wind Chill: 57°   Ceiling: 3400
Heat Index: 57°   Visibility: 6mi
Dew Point: 48°   Wind: 23mph
Humidity: 72%   Direction: 220°SW
Pressure: 29.94"   Gusts: NA
Location:  53.68°N, 0.34°W
Report Text: EGNJ 251320Z 22020KT 9999 FEW016 BKN034 14/09 Q1014
Loading
Personal Weather Stations






























Interactive Weather Map
Tropical Storm Tracking
New forecast layout! Learn more

10-Day Weather Forecast

Advertisements
Track Severe Weather on mobile